createdAt,value
2018-08-23T00:00:05.616Z,3.30
2018-08-23T00:06:10.233Z,4.00
2018-08-23T00:12:14.789Z,3.83
2018-08-23T00:18:19.387Z,4.47
2018-08-23T00:24:24.724Z,3.77
2018-08-23T00:30:30.209Z,3.67
2018-08-23T00:36:36.380Z,4.30
2018-08-23T00:42:40.985Z,3.93
2018-08-23T00:48:45.612Z,4.93
2018-08-23T00:54:50.329Z,5.90
2018-08-23T01:00:59.900Z,5.10
2018-08-23T01:07:04.551Z,6.43
2018-08-23T01:13:09.139Z,5.53
2018-08-23T01:19:18.944Z,5.60
2018-08-23T01:25:23.590Z,7.03
2018-08-23T01:31:30.117Z,7.00
2018-08-23T01:37:42.185Z,6.40
2018-08-23T01:43:46.772Z,5.20
2018-08-23T01:49:51.351Z,5.60
2018-08-23T01:55:55.922Z,6.27
2018-08-23T02:02:04.981Z,5.70
2018-08-23T02:08:09.574Z,6.90
2018-08-23T02:14:14.169Z,6.53
2018-08-23T02:20:18.789Z,9.57
2018-08-23T02:26:23.417Z,9.80
2018-08-23T02:32:28.011Z,7.90
2018-08-23T02:38:32.781Z,7.90
2018-08-23T02:44:37.423Z,8.63
2018-08-23T02:50:41.986Z,8.67
2018-08-23T02:56:51.713Z,8.80
2018-08-23T03:02:56.430Z,9.30
2018-08-23T03:09:01.023Z,8.83
2018-08-23T03:15:07.263Z,8.20
2018-08-23T03:21:11.860Z,8.83
2018-08-23T03:27:16.437Z,8.87
2018-08-23T03:33:21.030Z,8.30
2018-08-23T03:39:25.685Z,9.03
2018-08-23T03:45:30.306Z,8.20
2018-08-23T03:51:38.677Z,9.77
2018-08-23T03:57:48.426Z,9.80
2018-08-23T04:03:53.708Z,8.30
2018-08-23T04:09:58.316Z,8.87
2018-08-23T04:16:03.635Z,9.33
2018-08-23T04:22:08.257Z,10.77
2018-08-23T04:28:13.292Z,10.10
2018-08-23T04:34:17.879Z,9.07
2018-08-23T04:40:22.514Z,9.07
2018-08-23T04:46:27.095Z,9.10
2018-08-23T04:52:31.719Z,9.40
2018-08-23T04:58:36.301Z,9.03
2018-08-23T05:04:40.886Z,10.73
2018-08-23T05:10:45.490Z,10.20
2018-08-23T05:16:50.064Z,8.57
2018-08-23T05:22:59.852Z,8.70
2018-08-23T05:29:05.455Z,9.20
2018-08-23T05:35:10.046Z,9.20
2018-08-23T05:41:14.630Z,10.03
2018-08-23T05:47:19.265Z,9.17
2018-08-23T05:53:23.874Z,9.30
2018-08-23T05:59:28.497Z,9.47
2018-08-23T06:05:33.106Z,10.73
2018-08-23T06:11:37.729Z,10.53
2018-08-23T06:17:42.273Z,10.07
2018-08-23T06:23:54.073Z,9.47
2018-08-23T06:29:58.657Z,10.63
2018-08-23T06:36:03.818Z,10.03
2018-08-23T06:42:08.456Z,10.20
2018-08-23T06:48:13.081Z,9.70
2018-08-23T06:54:17.709Z,10.37
2018-08-23T07:00:26.636Z,11.90
2018-08-23T07:06:31.463Z,12.10
2018-08-23T07:12:36.045Z,10.70
2018-08-23T07:18:40.641Z,11.30
2018-08-23T07:24:46.457Z,16.13
2018-08-23T07:30:51.128Z,16.30
2018-08-23T07:36:55.817Z,16.13
2018-08-23T07:43:00.448Z,20.30
2018-08-23T07:49:05.096Z,19.20
2018-08-23T07:55:09.720Z,17.07
2018-08-23T08:01:14.299Z,19.20
2018-08-23T08:07:21.711Z,18.47
2018-08-23T08:13:26.296Z,19.47
2018-08-23T08:19:38.149Z,20.37
2018-08-23T08:25:42.986Z,17.60
2018-08-23T08:31:47.706Z,18.57
2018-08-23T08:37:52.440Z,17.33
2018-08-23T08:43:57.075Z,16.87
2018-08-23T08:50:02.434Z,17.60
2018-08-23T08:56:08.059Z,15.40
2018-08-23T09:02:13.130Z,14.10
2018-08-23T09:08:18.263Z,13.20
2018-08-23T09:14:23.415Z,14.00
2018-08-23T09:20:28.753Z,18.70
2018-08-23T09:26:38.939Z,24.27
2018-08-23T09:32:43.941Z,18.47
2018-08-23T09:38:48.977Z,13.63
2018-08-23T09:45:11.045Z,16.40
2018-08-23T09:51:21.368Z,18.40
2018-08-23T09:57:26.877Z,18.67
2018-08-23T10:03:37.435Z,15.97
2018-08-23T10:09:47.330Z,19.17
2018-08-23T10:15:57.221Z,19.63
2018-08-23T10:22:07.211Z,14.63
2018-08-23T10:28:13.466Z,13.10
2018-08-23T10:34:18.537Z,12.73
2018-08-23T10:40:23.548Z,11.53
2018-08-23T10:46:28.469Z,8.90
2018-08-23T10:52:33.439Z,10.67
2018-08-23T10:58:38.437Z,10.20
2018-08-23T11:04:43.473Z,10.30
2018-08-23T11:10:53.469Z,9.27
2018-08-23T11:17:03.596Z,10.33
2018-08-23T11:23:08.708Z,9.00
2018-08-23T11:29:13.681Z,10.60
2018-08-23T11:35:18.694Z,7.03
2018-08-23T11:41:23.470Z,8.97
2018-08-23T11:47:28.185Z,7.40
2018-08-23T11:53:33.246Z,7.30
2018-08-23T11:59:38.069Z,6.27
2018-08-23T12:05:43.429Z,5.80
2018-08-23T12:11:48.440Z,6.47
2018-08-23T12:17:54.329Z,7.43
2018-08-23T12:23:59.256Z,7.93
2018-08-23T12:30:06.434Z,6.80
2018-08-23T12:36:11.218Z,6.67
2018-08-23T12:42:21.243Z,7.70
2018-08-23T12:48:26.317Z,7.10
2018-08-23T12:54:31.299Z,7.53
2018-08-23T13:00:36.933Z,7.07
2018-08-23T13:06:41.853Z,6.93
2018-08-23T13:12:46.882Z,7.00
2018-08-23T13:18:51.867Z,7.93
2018-08-23T13:25:01.901Z,7.60
2018-08-23T13:31:06.707Z,7.33
2018-08-23T13:37:11.428Z,8.27
2018-08-23T13:43:16.184Z,7.30
2018-08-23T13:49:20.901Z,7.90
2018-08-23T13:55:25.916Z,8.33
2018-08-23T14:01:30.775Z,8.67
2018-08-23T14:07:35.414Z,7.37
2018-08-23T14:13:41.573Z,7.60
2018-08-23T14:19:47.262Z,8.33
2018-08-23T14:25:53.300Z,7.47
2018-08-23T14:31:58.835Z,7.13
2018-08-23T14:38:03.638Z,6.80
2018-08-23T14:44:08.813Z,7.60
2018-08-23T14:50:13.424Z,7.67
2018-08-23T14:56:23.538Z,6.13
2018-08-23T15:02:28.592Z,7.13
2018-08-23T15:08:33.600Z,7.20
2018-08-23T15:14:38.712Z,8.50
2018-08-23T15:20:43.628Z,7.20
2018-08-23T15:26:48.766Z,8.20
2018-08-23T15:32:53.316Z,10.80
2018-08-23T15:38:57.966Z,11.33
2018-08-23T15:45:02.603Z,11.23
2018-08-23T15:51:07.300Z,11.00
2018-08-23T15:57:12.167Z,11.87
2018-08-23T16:03:17.163Z,10.83
2018-08-23T16:09:22.206Z,11.03
2018-08-23T16:15:27.560Z,10.33
2018-08-23T16:21:36.083Z,10.30
2018-08-23T16:27:41.150Z,10.83
2018-08-23T16:33:46.127Z,9.90
2018-08-23T16:39:51.169Z,10.00
2018-08-23T16:45:56.175Z,8.60
2018-08-23T16:52:01.168Z,9.40
2018-08-23T16:58:06.164Z,9.00
2018-08-23T17:04:11.218Z,8.87
2018-08-23T17:10:16.271Z,9.07
2018-08-23T17:16:26.876Z,9.23
2018-08-23T17:22:31.864Z,9.40
2018-08-23T17:28:36.995Z,9.17
2018-08-23T17:34:42.055Z,8.40
2018-08-23T17:40:47.465Z,8.03
2018-08-23T17:46:52.499Z,8.60
2018-08-23T17:52:57.483Z,7.33
2018-08-23T17:59:02.354Z,7.70
2018-08-23T18:05:07.378Z,7.20
2018-08-23T18:11:12.329Z,7.67
2018-08-23T18:17:17.296Z,8.50
2018-08-23T18:23:22.085Z,8.93
2018-08-23T18:29:26.767Z,8.80
2018-08-23T18:35:31.460Z,8.37
2018-08-23T18:41:36.434Z,10.20
2018-08-23T18:47:41.550Z,8.37
2018-08-23T18:53:46.515Z,8.20
2018-08-23T18:59:51.532Z,7.77
2018-08-23T19:05:56.435Z,8.17
2018-08-23T19:12:01.095Z,7.17
2018-08-23T19:18:06.095Z,7.50
2018-08-23T19:24:10.675Z,7.73
2018-08-23T19:30:15.288Z,7.93
2018-08-23T19:36:19.900Z,7.93
2018-08-23T19:42:24.561Z,8.07
2018-08-23T19:48:29.186Z,7.83
2018-08-23T19:54:33.800Z,7.73
2018-08-23T20:00:38.389Z,6.90
2018-08-23T20:06:42.985Z,7.73
2018-08-23T20:12:47.562Z,7.97
2018-08-23T20:18:52.201Z,6.93
2018-08-23T20:24:56.875Z,7.20
2018-08-23T20:31:01.438Z,7.53
2018-08-23T20:37:06.165Z,6.60
2018-08-23T20:43:10.750Z,6.70
2018-08-23T20:49:15.345Z,6.67
2018-08-23T20:55:19.926Z,6.50
2018-08-23T21:01:24.502Z,6.43
2018-08-23T21:07:29.082Z,7.20
2018-08-23T21:13:33.642Z,7.20
2018-08-23T21:19:38.279Z,6.83
2018-08-23T21:25:42.864Z,6.50
2018-08-23T21:31:47.460Z,6.67
2018-08-23T21:37:52.062Z,6.77
2018-08-23T21:43:56.676Z,6.30
2018-08-23T21:50:01.253Z,7.20
2018-08-23T21:56:05.839Z,7.40
2018-08-23T22:02:15.694Z,8.10
2018-08-23T22:08:20.307Z,7.60
2018-08-23T22:14:24.889Z,7.40
2018-08-23T22:20:29.513Z,8.20
2018-08-23T22:26:34.126Z,6.83
2018-08-23T22:32:38.768Z,7.10
2018-08-23T22:38:43.400Z,6.00
2018-08-23T22:44:48.006Z,6.50
2018-08-23T22:50:52.601Z,6.73
2018-08-23T22:56:57.253Z,7.03
2018-08-23T23:03:01.849Z,6.30
2018-08-23T23:09:11.144Z,5.97
2018-08-23T23:15:21.140Z,6.10
2018-08-23T23:21:25.704Z,6.03
2018-08-23T23:27:30.824Z,5.90
2018-08-23T23:33:35.430Z,6.27
2018-08-23T23:39:40.022Z,7.70
2018-08-23T23:45:44.560Z,8.20
2018-08-23T23:51:49.123Z,7.97
2018-08-23T23:57:53.684Z,8.23
